Time;durP1;ratioP1;P1;durP2;ratioP2;P2;SDS_P1;SDS_P2;PMS_P1;PMS_P2;Temp;Humidity;BMP_temperature;BMP_pressure;BME280_temperature;BME280_humidity;BME280_pressure;Samples;Min_cycle;Max_cycle;Signal;HPM_P1;HPM_P2
2022/12/01 00:02:08;;;;;;;;;;;6.00;99.90;;;;;;5057943;28;19926;-73
2022/12/01 00:04:33;;;;;;;;;;;6.00;99.90;;;;;;5042428;28;19921;-73
2022/12/01 00:06:59;;;;;;;;;;;6.00;99.90;;;;;;5039765;28;20414;-74
2022/12/01 00:12:09;;;;;;;;;;;6.00;99.90;;;;;;5057209;28;20003;-73
2022/12/01 00:14:34;;;;;;;;;;;7.00;99.90;;;;;;5054532;28;21479;-73
2022/12/01 00:17:00;;;;;;;;;;;6.00;99.90;;;;;;5024411;28;19928;-73
2022/12/01 00:19:26;;;;;;;;;;;4.50;99.90;;;;;;5054296;28;19970;-73
2022/12/01 00:21:51;;;;;;;;;;;6.00;99.90;;;;;;5035577;28;19935;-73
2022/12/01 00:24:17;;;;;;;;;;;7.20;99.90;;;;;;5040551;28;19960;-74
2022/12/01 00:26:43;;;;;;;;;;;5.90;99.90;;;;;;5054764;28;19928;-74
2022/12/01 00:29:08;;;;;;;;;;;6.00;99.90;;;;;;5060754;28;20354;-74
2022/12/01 00:31:34;;;;;;;;;;;5.90;99.90;;;;;;5057791;28;19929;-74
2022/12/01 00:34:00;;;;;;;;;;;5.90;99.90;;;;;;5050328;28;19966;-75
2022/12/01 00:36:25;;;;;;;;;;;6.00;99.90;;;;;;5058400;28;19954;-74
2022/12/01 00:38:54;;;;;;;;;;;5.90;99.90;;;;;;5056246;28;19920;-73
2022/12/01 00:41:20;;;;;;;;;;;5.90;99.90;;;;;;5049986;28;20224;-74
2022/12/01 00:43:46;;;;;;;;;;;5.90;99.90;;;;;;5062587;28;19920;-74
2022/12/01 00:46:11;;;;;;;;;;;5.90;99.90;;;;;;5039124;28;19921;-74
2022/12/01 00:48:37;;;;;;;;;;;5.80;99.90;;;;;;5054085;28;19970;-75
2022/12/01 00:51:03;;;;;;;;;;;7.20;99.90;;;;;;5051667;28;20525;-75
2022/12/01 00:53:29;;;;;;;;;;;5.90;99.90;;;;;;5057801;28;20376;-75
2022/12/01 00:55:54;;;;;;;;;;;5.80;99.90;;;;;;5041423;28;20378;-74
2022/12/01 00:58:21;;;;;;;;;;;5.90;99.90;;;;;;5053025;28;19924;-75
2022/12/01 01:00:46;;;;;;;;;;;7.40;99.90;;;;;;5042183;28;19920;-75
2022/12/01 01:03:12;;;;;;;;;;;5.80;99.90;;;;;;5059214;28;19978;-75
2022/12/01 01:05:39;;;;;;;;;;;5.80;99.90;;;;;;5054206;28;19920;-74
2022/12/01 01:08:08;;;;;;;;;;;6.40;99.90;;;;;;5040923;28;19921;-75
2022/12/01 01:10:36;;;;;;;;;;;5.80;99.90;;;;;;5052707;28;20011;-75
2022/12/01 01:13:02;;;;;;;;;;;5.90;99.90;;;;;;5061085;28;20372;-74
2022/12/01 01:15:28;;;;;;;;;;;5.90;99.90;;;;;;5052223;28;19950;-74
2022/12/01 01:17:53;;;;;;;;;;;7.40;99.90;;;;;;5058492;28;20260;-75
2022/12/01 01:20:19;;;;;;;;;;;5.90;99.90;;;;;;5059399;28;19945;-74
2022/12/01 01:22:44;;;;;;;;;;;5.90;99.90;;;;;;5052089;28;20019;-74
2022/12/01 01:25:10;;;;;;;;;;;5.90;99.90;;;;;;5042519;28;19965;-74
2022/12/01 01:27:35;;;;;;;;;;;5.80;99.90;;;;;;5032679;28;20459;-74
2022/12/01 01:30:01;;;;;;;;;;;5.80;99.90;;;;;;5054557;28;20288;-73
2022/12/01 01:32:26;;;;;;;;;;;5.90;99.90;;;;;;5056316;28;19934;-75
2022/12/01 01:34:52;;;;;;;;;;;5.80;99.90;;;;;;5060059;28;19921;-74
2022/12/01 01:37:17;;;;;;;;;;;5.80;99.90;;;;;;5060126;28;20357;-74
2022/12/01 01:39:43;;;;;;;;;;;6.50;99.90;;;;;;5058397;28;20036;-74
2022/12/01 01:42:11;;;;;;;;;;;5.80;99.90;;;;;;5058748;28;20457;-73
2022/12/01 01:44:54;;;;;;;;;;;5.80;99.90;;;;;;5036937;28;19925;-74
2022/12/01 01:47:25;;;;;;;;;;;5.80;99.90;;;;;;5051055;28;19924;-75
2022/12/01 01:49:52;;;;;;;;;;;5.90;99.90;;;;;;5057465;28;19974;-74
2022/12/01 01:52:17;;;;;;;;;;;5.80;99.90;;;;;;5068340;28;19920;-75
2022/12/01 01:54:45;;;;;;;;;;;6.30;99.90;;;;;;5064737;28;19931;-74
2022/12/01 01:57:12;;;;;;;;;;;5.90;99.90;;;;;;5041038;28;20414;-74
2022/12/01 01:59:40;;;;;;;;;;;5.90;99.90;;;;;;5054459;28;19920;-75
2022/12/01 02:02:07;;;;;;;;;;;5.80;99.90;;;;;;5063286;28;20364;-75
2022/12/01 02:04:34;;;;;;;;;;;5.80;99.90;;;;;;5062120;28;20121;-75
2022/12/01 02:07:00;;;;;;;;;;;5.90;99.90;;;;;;5060685;28;19920;-74
2022/12/01 02:09:25;;;;;;;;;;;6.10;99.90;;;;;;5058631;28;20262;-75
2022/12/01 02:11:51;;;;;;;;;;;5.90;99.90;;;;;;5064401;28;19920;-74
2022/12/01 02:14:41;;;;;;;;;;;7.20;99.90;;;;;;5071951;28;19921;-74
2022/12/01 02:17:18;;;;;;;;;;;5.90;99.90;;;;;;5057530;28;20510;-74
2022/12/01 02:20:16;;;;;;;;;;;5.80;99.90;;;;;;5061070;28;20265;-74
2022/12/01 02:22:51;;;;;;;;;;;5.80;99.90;;;;;;5040646;28;20014;-75
2022/12/01 02:25:18;;;;;;;;;;;5.80;99.90;;;;;;5063796;28;19920;-74
2022/12/01 02:27:47;;;;;;;;;;;5.80;99.90;;;;;;5036960;28;19921;-75
2022/12/01 02:30:14;;;;;;;;;;;5.80;99.90;;;;;;5059965;28;19923;-74
2022/12/01 02:32:42;;;;;;;;;;;5.70;99.90;;;;;;5061950;28;20360;-75
2022/12/01 02:35:13;;;;;;;;;;;5.50;99.90;;;;;;5062707;28;19971;-74
2022/12/01 02:37:48;;;;;;;;;;;5.70;99.90;;;;;;5036648;28;20407;-74
2022/12/01 02:40:29;;;;;;;;;;;5.70;99.90;;;;;;5058621;28;19920;-74
2022/12/01 02:43:02;;;;;;;;;;;5.70;99.90;;;;;;5056701;28;20021;-73
2022/12/01 02:45:38;;;;;;;;;;;5.70;99.90;;;;;;5057028;28;19928;-74
2022/12/01 02:48:06;;;;;;;;;;;5.70;99.90;;;;;;5042740;28;20465;-73
2022/12/01 02:50:34;;;;;;;;;;;5.70;99.90;;;;;;5034245;28;19927;-74
2022/12/01 02:53:01;;;;;;;;;;;4.40;99.90;;;;;;5044965;28;19928;-74
2022/12/01 02:55:27;;;;;;;;;;;6.00;99.90;;;;;;5057275;28;19928;-75
2022/12/01 02:57:53;;;;;;;;;;;5.70;99.90;;;;;;5059758;28;19924;-74
2022/12/01 03:00:18;;;;;;;;;;;5.70;99.90;;;;;;5046343;28;19920;-74
2022/12/01 03:02:52;;;;;;;;;;;5.40;99.90;;;;;;5058748;28;19921;-75
2022/12/01 03:05:21;;;;;;;;;;;5.80;99.90;;;;;;5053611;28;20013;-74
2022/12/01 03:07:59;;;;;;;;;;;5.80;99.90;;;;;;5059040;28;20364;-75
2022/12/01 03:10:25;;;;;;;;;;;5.80;99.90;;;;;;5041105;28;19928;-75
2022/12/01 03:12:53;;;;;;;;;;;5.80;99.90;;;;;;5048515;28;20302;-75
2022/12/01 03:15:22;;;;;;;;;;;5.80;99.90;;;;;;5056750;28;19931;-74
2022/12/01 03:17:53;;;;;;;;;;;5.80;99.90;;;;;;5055965;28;19924;-74
2022/12/01 03:20:33;;;;;;;;;;;5.80;99.90;;;;;;5059796;28;20037;-75
2022/12/01 03:23:02;;;;;;;;;;;5.80;99.90;;;;;;5059307;28;20449;-74
2022/12/01 03:25:29;;;;;;;;;;;5.80;99.90;;;;;;5042604;28;19925;-74
2022/12/01 03:27:55;;;;;;;;;;;5.70;99.90;;;;;;5061042;28;20003;-75
2022/12/01 03:30:25;;;;;;;;;;;5.80;99.90;;;;;;5065445;28;19924;-74
2022/12/01 03:32:56;;;;;;;;;;;5.80;99.90;;;;;;5038667;28;20019;-74
2022/12/01 03:35:23;;;;;;;;;;;6.00;99.90;;;;;;5042580;28;19971;-74
2022/12/01 03:37:58;;;;;;;;;;;5.80;99.90;;;;;;5055755;28;19921;-74
2022/12/01 03:40:28;;;;;;;;;;;5.80;99.90;;;;;;5038980;28;19967;-75
2022/12/01 03:42:56;;;;;;;;;;;5.70;99.90;;;;;;5048332;28;19924;-74
2022/12/01 03:45:25;;;;;;;;;;;5.70;99.90;;;;;;5032858;28;19943;-74
2022/12/01 03:47:51;;;;;;;;;;;5.70;99.90;;;;;;5028929;28;19924;-74
2022/12/01 03:50:17;;;;;;;;;;;7.20;99.90;;;;;;5052362;28;20990;-74
2022/12/01 03:52:52;;;;;;;;;;;5.70;99.90;;;;;;5053325;28;19928;-74
2022/12/01 03:55:18;;;;;;;;;;;5.60;99.90;;;;;;5057862;28;19927;-74
2022/12/01 03:58:00;;;;;;;;;;;5.60;99.90;;;;;;5059168;28;19921;-73
2022/12/01 04:00:26;;;;;;;;;;;5.70;99.90;;;;;;5061460;28;20326;-73
2022/12/01 04:02:55;;;;;;;;;;;6.00;99.90;;;;;;5040553;28;20451;-74
2022/12/01 04:05:21;;;;;;;;;;;5.70;99.90;;;;;;5060061;28;19925;-74
2022/12/01 04:07:49;;;;;;;;;;;5.70;99.90;;;;;;5055687;28;19920;-75
2022/12/01 04:10:15;;;;;;;;;;;5.70;99.90;;;;;;5020798;28;20008;-75
2022/12/01 04:12:41;;;;;;;;;;;5.70;99.90;;;;;;5038334;28;19956;-74
2022/12/01 04:15:08;;;;;;;;;;;5.70;99.90;;;;;;5061243;28;19928;-74
2022/12/01 04:17:33;;;;;;;;;;;5.70;99.90;;;;;;5054419;28;20449;-74
2022/12/01 04:19:59;;;;;;;;;;;6.70;99.90;;;;;;5066272;28;19920;-75
2022/12/01 04:22:25;;;;;;;;;;;5.80;99.90;;;;;;5050572;28;19921;-74
2022/12/01 04:24:51;;;;;;;;;;;5.80;99.90;;;;;;5053585;28;19931;-74
2022/12/01 04:27:17;;;;;;;;;;;5.80;99.90;;;;;;5047928;28;19929;-74
2022/12/01 04:29:43;;;;;;;;;;;5.80;99.90;;;;;;5041974;28;19981;-74
2022/12/01 04:32:08;;;;;;;;;;;5.80;99.90;;;;;;5060027;28;19916;-74
2022/12/01 04:34:34;;;;;;;;;;;5.80;99.90;;;;;;5039108;28;19921;-74
2022/12/01 04:36:59;;;;;;;;;;;5.80;99.90;;;;;;5053929;28;19978;-73
2022/12/01 04:39:25;;;;;;;;;;;6.50;99.90;;;;;;5056279;28;19966;-74
2022/12/01 04:41:51;;;;;;;;;;;5.80;99.90;;;;;;5054446;28;21250;-75
2022/12/01 04:44:16;;;;;;;;;;;5.80;99.90;;;;;;5036776;28;19982;-75
2022/12/01 04:46:42;;;;;;;;;;;5.80;99.90;;;;;;5049025;28;20308;-75
2022/12/01 04:49:07;;;;;;;;;;;5.80;99.90;;;;;;5052922;28;20335;-76
2022/12/01 04:51:33;;;;;;;;;;;5.80;99.90;;;;;;5051436;28;19960;-76
2022/12/01 04:54:00;;;;;;;;;;;6.70;99.90;;;;;;5034965;28;19927;-74
2022/12/01 04:56:25;;;;;;;;;;;5.80;99.90;;;;;;5045949;28;19927;-75
2022/12/01 04:58:51;;;;;;;;;;;6.40;99.90;;;;;;5055316;28;19921;-75
2022/12/01 05:01:17;;;;;;;;;;;5.80;99.90;;;;;;5044526;28;19921;-76
2022/12/01 05:03:43;;;;;;;;;;;5.80;99.90;;;;;;5050306;28;19917;-75
2022/12/01 05:06:10;;;;;;;;;;;5.80;99.90;;;;;;5054374;28;19928;-75
2022/12/01 05:08:36;;;;;;;;;;;5.80;99.90;;;;;;5055804;28;20581;-75
2022/12/01 05:11:02;;;;;;;;;;;5.80;99.90;;;;;;5059819;28;20012;-75
2022/12/01 05:13:27;;;;;;;;;;;5.80;99.90;;;;;;5071359;28;19927;-74
2022/12/01 05:15:53;;;;;;;;;;;5.80;99.90;;;;;;5056887;28;19921;-74
2022/12/01 05:18:19;;;;;;;;;;;6.30;99.90;;;;;;5064209;28;19920;-74
2022/12/01 05:20:56;;;;;;;;;;;5.80;99.90;;;;;;5042026;28;19940;-75
2022/12/01 05:23:27;;;;;;;;;;;6.30;99.90;;;;;;5048964;28;19921;-75
2022/12/01 05:25:52;;;;;;;;;;;6.60;99.90;;;;;;5066579;28;19924;-76
2022/12/01 05:28:18;;;;;;;;;;;5.70;99.90;;;;;;5057785;28;19934;-76
2022/12/01 05:30:44;;;;;;;;;;;6.70;99.90;;;;;;5058492;28;20326;-72
2022/12/01 05:33:09;;;;;;;;;;;7.10;99.90;;;;;;5067017;28;20330;-73
2022/12/01 05:35:35;;;;;;;;;;;5.70;99.90;;;;;;5045671;28;19920;-73
2022/12/01 05:38:01;;;;;;;;;;;5.70;99.90;;;;;;5061436;28;19970;-72
2022/12/01 05:40:26;;;;;;;;;;;5.70;99.90;;;;;;5061828;28;19928;-73
2022/12/01 05:42:52;;;;;;;;;;;5.60;99.90;;;;;;5052395;28;20395;-72
2022/12/01 05:45:17;;;;;;;;;;;5.60;99.90;;;;;;5047594;28;20391;-73
2022/12/01 05:47:43;;;;;;;;;;;5.50;99.90;;;;;;5047061;28;19929;-75
2022/12/01 05:50:09;;;;;;;;;;;5.50;99.90;;;;;;5052431;28;19940;-75
2022/12/01 05:52:35;;;;;;;;;;;5.50;99.90;;;;;;5053317;28;19924;-76
2022/12/01 05:55:03;;;;;;;;;;;5.60;99.90;;;;;;5051290;28;19957;-76
2022/12/01 05:57:30;;;;;;;;;;;5.40;99.90;;;;;;5046792;28;20364;-75
2022/12/01 05:59:55;;;;;;;;;;;5.40;99.90;;;;;;5052427;28;19946;-74
2022/12/01 06:02:21;;;;;;;;;;;5.30;99.90;;;;;;5058336;28;19925;-75
2022/12/01 06:04:47;;;;;;;;;;;5.30;99.90;;;;;;5033080;28;19916;-74
2022/12/01 06:07:12;;;;;;;;;;;5.30;99.90;;;;;;5032330;28;20041;-75
2022/12/01 06:09:38;;;;;;;;;;;5.20;99.90;;;;;;5057299;28;19944;-75
2022/12/01 06:12:06;;;;;;;;;;;6.60;99.90;;;;;;5054508;28;19920;-74
2022/12/01 06:14:34;;;;;;;;;;;5.20;99.90;;;;;;5054828;28;19927;-74
2022/12/01 06:16:59;;;;;;;;;;;5.10;99.90;;;;;;5048920;28;19924;-74
2022/12/01 06:19:25;;;;;;;;;;;5.10;99.90;;;;;;5058468;28;20034;-74
2022/12/01 06:21:50;;;;;;;;;;;5.60;99.90;;;;;;5059069;28;19935;-74
2022/12/01 06:24:16;;;;;;;;;;;5.00;99.90;;;;;;5056325;28;19973;-74
2022/12/01 06:26:41;;;;;;;;;;;6.80;99.90;;;;;;5062031;28;20301;-75
2022/12/01 06:29:08;;;;;;;;;;;4.90;99.90;;;;;;5052360;28;20337;-76
2022/12/01 06:31:34;;;;;;;;;;;4.90;99.90;;;;;;5053598;28;19931;-76
2022/12/01 06:33:59;;;;;;;;;;;4.80;99.90;;;;;;5036131;28;20019;-76
2022/12/01 06:36:25;;;;;;;;;;;4.90;99.90;;;;;;5038203;28;19925;-75
2022/12/01 06:38:51;;;;;;;;;;;4.80;99.90;;;;;;5051099;28;20368;-77
2022/12/01 06:41:17;;;;;;;;;;;4.70;99.90;;;;;;5037265;28;19928;-75
2022/12/01 06:43:44;;;;;;;;;;;4.70;99.90;;;;;;5053763;28;19929;-77
2022/12/01 06:46:09;;;;;;;;;;;4.70;99.90;;;;;;5036599;28;19929;-75
2022/12/01 06:48:35;;;;;;;;;;;4.70;99.90;;;;;;5054944;28;20411;-76
2022/12/01 06:51:00;;;;;;;;;;;4.60;99.90;;;;;;5059573;28;19924;-75
2022/12/01 06:53:27;;;;;;;;;;;4.60;99.90;;;;;;5057389;28;19928;-76
2022/12/01 06:55:53;;;;;;;;;;;4.60;99.90;;;;;;5051326;28;20445;-76
2022/12/01 06:58:18;;;;;;;;;;;4.60;99.90;;;;;;5050545;28;19960;-76
2022/12/01 07:00:44;;;;;;;;;;;4.50;99.90;;;;;;5052952;28;19920;-76
2022/12/01 07:03:09;;;;;;;;;;;4.50;99.90;;;;;;5053143;28;19924;-76
2022/12/01 07:05:35;;;;;;;;;;;4.50;99.90;;;;;;5054465;28;20287;-75
2022/12/01 07:08:01;;;;;;;;;;;4.40;99.90;;;;;;5057678;28;19928;-75
2022/12/01 07:10:26;;;;;;;;;;;5.70;99.90;;;;;;5057480;28;19978;-76
2022/12/01 07:12:54;;;;;;;;;;;4.40;99.90;;;;;;5050433;28;19932;-76
2022/12/01 07:15:19;;;;;;;;;;;4.30;99.90;;;;;;5048240;28;20532;-75
2022/12/01 07:17:45;;;;;;;;;;;4.30;99.90;;;;;;5051771;28;19920;-75
2022/12/01 07:20:11;;;;;;;;;;;4.20;99.90;;;;;;5052893;28;19921;-75
2022/12/01 07:22:37;;;;;;;;;;;4.20;99.90;;;;;;5056131;28;19927;-75
2022/12/01 07:25:03;;;;;;;;;;;4.20;99.90;;;;;;5033548;28;20369;-76
2022/12/01 07:27:29;;;;;;;;;;;4.30;99.90;;;;;;5059149;28;19970;-76
2022/12/01 07:29:55;;;;;;;;;;;4.20;99.90;;;;;;5052115;28;19966;-74
2022/12/01 07:32:20;;;;;;;;;;;4.10;99.90;;;;;;5036320;28;19932;-75
2022/12/01 07:34:46;;;;;;;;;;;5.90;99.90;;;;;;5052712;28;19924;-75
2022/12/01 07:37:11;;;;;;;;;;;4.10;99.90;;;;;;5053145;28;20008;-75
2022/12/01 07:39:37;;;;;;;;;;;5.30;99.90;;;;;;5040854;28;19920;-75
2022/12/01 07:42:02;;;;;;;;;;;3.70;99.90;;;;;;5038639;28;20384;-74
2022/12/01 07:44:28;;;;;;;;;;;4.00;99.90;;;;;;5055486;28;19916;-75
2022/12/01 07:46:53;;;;;;;;;;;5.50;99.90;;;;;;5055315;28;19985;-75
2022/12/01 07:49:19;;;;;;;;;;;4.70;99.90;;;;;;5056909;28;19978;-75
2022/12/01 07:51:44;;;;;;;;;;;4.00;99.90;;;;;;5060845;28;19924;-75
2022/12/01 07:54:13;;;;;;;;;;;4.00;99.90;;;;;;5051538;28;19924;-74
2022/12/01 07:56:39;;;;;;;;;;;4.00;99.90;;;;;;5045529;28;19924;-76
2022/12/01 07:59:04;;;;;;;;;;;5.20;99.90;;;;;;5059122;28;19950;-75
2022/12/01 08:01:30;;;;;;;;;;;3.90;99.90;;;;;;5034027;28;20031;-74
2022/12/01 08:03:56;;;;;;;;;;;5.40;99.90;;;;;;5056145;28;19925;-74
2022/12/01 08:06:22;;;;;;;;;;;3.80;99.90;;;;;;5043407;28;20398;-75
2022/12/01 08:08:48;;;;;;;;;;;3.90;99.90;;;;;;5063319;28;19923;-75
2022/12/01 08:11:15;;;;;;;;;;;3.90;99.90;;;;;;5053758;28;19928;-76
2022/12/01 08:13:41;;;;;;;;;;;4.10;99.90;;;;;;5062309;28;19920;-75
2022/12/01 08:16:07;;;;;;;;;;;3.90;99.90;;;;;;4714501;28;10000565;-74
2022/12/01 08:18:37;;;;;;;;;;;3.80;99.90;;;;;;5035731;28;19933;-75
2022/12/01 08:21:03;;;;;;;;;;;5.40;99.90;;;;;;5039278;28;20019;-74
2022/12/01 08:23:28;;;;;;;;;;;3.80;99.90;;;;;;5054466;28;20360;-74
2022/12/01 08:25:54;;;;;;;;;;;3.90;99.90;;;;;;5054178;28;19927;-74
2022/12/01 08:28:19;;;;;;;;;;;4.40;99.90;;;;;;5054361;28;19931;-74
2022/12/01 08:30:48;;;;;;;;;;;5.20;99.90;;;;;;5057022;28;19920;-74
2022/12/01 08:33:13;;;;;;;;;;;3.80;99.90;;;;;;5055000;28;19987;-74
2022/12/01 08:35:39;;;;;;;;;;;3.80;99.90;;;;;;5054290;28;20372;-74
2022/12/01 08:38:05;;;;;;;;;;;3.80;99.90;;;;;;5058980;28;19931;-74
2022/12/01 08:40:30;;;;;;;;;;;3.80;99.90;;;;;;5059027;28;19946;-75
2022/12/01 08:42:56;;;;;;;;;;;4.50;99.90;;;;;;5041699;28;20414;-75
2022/12/01 08:45:22;;;;;;;;;;;3.80;99.90;;;;;;5035993;28;20416;-74
2022/12/01 08:47:47;;;;;;;;;;;3.80;99.90;;;;;;5064211;28;20367;-75
2022/12/01 08:50:13;;;;;;;;;;;3.80;99.90;;;;;;5046340;28;20415;-75
2022/12/01 08:52:39;;;;;;;;;;;3.80;99.90;;;;;;5041016;28;20042;-75
2022/12/01 08:55:05;;;;;;;;;;;3.80;99.90;;;;;;5042536;28;20007;-75
2022/12/01 08:57:31;;;;;;;;;;;3.90;99.90;;;;;;5041724;28;19928;-74
2022/12/01 08:59:56;;;;;;;;;;;4.00;99.90;;;;;;5037806;28;20315;-74
2022/12/01 09:02:22;;;;;;;;;;;3.80;99.90;;;;;;5046873;28;19927;-74
2022/12/01 09:04:49;;;;;;;;;;;3.90;99.90;;;;;;5048021;28;20019;-74
2022/12/01 09:07:15;;;;;;;;;;;3.90;99.90;;;;;;5060097;28;19989;-73
2022/12/01 09:09:41;;;;;;;;;;;5.00;99.90;;;;;;5065022;28;19920;-74
2022/12/01 09:12:07;;;;;;;;;;;3.90;99.90;;;;;;5059632;28;19925;-73
2022/12/01 09:14:40;;;;;;;;;;;4.30;99.90;;;;;;5060079;28;19933;-73
2022/12/01 09:17:06;;;;;;;;;;;4.00;99.90;;;;;;5043776;28;19966;-73
2022/12/01 09:19:32;;;;;;;;;;;3.20;99.90;;;;;;5046612;28;19928;-72
2022/12/01 09:21:58;;;;;;;;;;;4.00;99.90;;;;;;5041874;28;19921;-73
2022/12/01 09:24:23;;;;;;;;;;;4.00;99.90;;;;;;5060202;28;20331;-72
2022/12/01 09:26:49;;;;;;;;;;;3.90;99.90;;;;;;5043192;28;19921;-73
2022/12/01 09:29:15;;;;;;;;;;;4.10;99.90;;;;;;5040074;28;19920;-74
2022/12/01 09:31:41;;;;;;;;;;;4.00;99.90;;;;;;5059371;28;20380;-74
2022/12/01 09:34:09;;;;;;;;;;;4.10;99.90;;;;;;5044148;28;20483;-74
2022/12/01 09:36:35;;;;;;;;;;;4.10;99.90;;;;;;5063230;28;19972;-73
2022/12/01 09:39:01;;;;;;;;;;;4.20;99.90;;;;;;5059580;28;19969;-73
2022/12/01 09:41:35;;;;;;;;;;;4.20;99.90;;;;;;5061101;28;19931;-73
2022/12/01 09:44:04;;;;;;;;;;;4.20;99.90;;;;;;5064199;28;19920;-74
2022/12/01 09:46:36;;;;;;;;;;;4.20;99.90;;;;;;5059108;28;19921;-73
2022/12/01 09:49:02;;;;;;;;;;;4.30;99.90;;;;;;5057846;28;20372;-74
2022/12/01 09:51:28;;;;;;;;;;;4.30;99.90;;;;;;5060942;28;19978;-74
2022/12/01 09:53:55;;;;;;;;;;;4.30;99.90;;;;;;5061705;28;19931;-73
2022/12/01 09:56:33;;;;;;;;;;;4.40;99.90;;;;;;5060683;28;19924;-74
2022/12/01 09:59:00;;;;;;;;;;;4.40;99.90;;;;;;5057604;28;19947;-74
2022/12/01 10:01:30;;;;;;;;;;;4.70;99.90;;;;;;5059594;28;20375;-74
2022/12/01 10:03:58;;;;;;;;;;;4.50;99.90;;;;;;5058556;28;19974;-74
2022/12/01 10:06:27;;;;;;;;;;;4.50;99.90;;;;;;5042876;28;19966;-74
2022/12/01 10:09:02;;;;;;;;;;;4.50;99.90;;;;;;5057113;28;19920;-74
2022/12/01 10:11:34;;;;;;;;;;;4.60;99.90;;;;;;5061916;28;20346;-75
2022/12/01 10:14:00;;;;;;;;;;;4.70;99.90;;;;;;5055553;28;19927;-74
2022/12/01 10:16:29;;;;;;;;;;;4.70;99.90;;;;;;5060772;28;20585;-73
2022/12/01 10:19:02;;;;;;;;;;;5.90;99.90;;;;;;5037637;28;19921;-74
2022/12/01 10:21:33;;;;;;;;;;;4.80;99.90;;;;;;5058922;28;20273;-75
2022/12/01 10:23:59;;;;;;;;;;;4.80;99.90;;;;;;5061470;28;19973;-74
2022/12/01 10:26:33;;;;;;;;;;;4.90;99.90;;;;;;5038871;28;20253;-74
2022/12/01 10:29:07;;;;;;;;;;;4.90;99.90;;;;;;5061285;28;19927;-74
2022/12/01 10:31:35;;;;;;;;;;;4.90;99.90;;;;;;5039482;28;20430;-73
2022/12/01 10:34:03;;;;;;;;;;;5.40;99.90;;;;;;5055932;28;20004;-75
2022/12/01 10:36:30;;;;;;;;;;;5.00;99.90;;;;;;5033617;28;19953;-76
2022/12/01 10:38:55;;;;;;;;;;;5.10;99.90;;;;;;5038255;28;19920;-74
2022/12/01 10:41:22;;;;;;;;;;;5.10;99.90;;;;;;5055332;28;19932;-73
2022/12/01 10:43:49;;;;;;;;;;;5.20;99.90;;;;;;5054046;28;19925;-73
2022/12/01 10:46:21;;;;;;;;;;;5.20;99.90;;;;;;5050752;28;20014;-73
2022/12/01 10:49:05;;;;;;;;;;;5.30;99.90;;;;;;5050917;28;19970;-75
2022/12/01 10:51:44;;;;;;;;;;;5.30;99.90;;;;;;5053311;28;19921;-74
2022/12/01 10:54:10;;;;;;;;;;;5.40;99.90;;;;;;5041044;28;20330;-73
2022/12/01 10:56:38;;;;;;;;;;;5.40;99.90;;;;;;5035578;28;19921;-74
2022/12/01 10:59:13;;;;;;;;;;;5.50;99.90;;;;;;5055841;28;19951;-73
2022/12/01 11:01:45;;;;;;;;;;;5.70;99.90;;;;;;5049854;28;19960;-74
2022/12/01 11:04:29;;;;;;;;;;;5.50;99.90;;;;;;5054884;28;19920;-73
2022/12/01 11:06:55;;;;;;;;;;;5.60;99.90;;;;;;5039597;28;20431;-73
2022/12/01 11:09:26;;;;;;;;;;;5.30;99.90;;;;;;5055014;28;19924;-73
2022/12/01 11:11:59;;;;;;;;;;;5.70;99.90;;;;;;5053489;28;19921;-73
2022/12/01 11:14:40;;;;;;;;;;;5.70;99.90;;;;;;5055002;28;19928;-73
2022/12/01 11:17:21;;;;;;;;;;;5.80;99.90;;;;;;5040381;28;19974;-74
2022/12/01 11:19:46;;;;;;;;;;;5.80;99.90;;;;;;5050031;28;19964;-74
2022/12/01 11:22:21;;;;;;;;;;;5.90;99.90;;;;;;5048659;28;19975;-74
2022/12/01 11:24:55;;;;;;;;;;;5.90;99.90;;;;;;5053110;28;20438;-74
2022/12/01 11:27:24;;;;;;;;;;;6.00;99.90;;;;;;5049442;28;20629;-72
2022/12/01 11:29:51;;;;;;;;;;;6.10;99.90;;;;;;5046016;28;20380;-72
2022/12/01 11:32:19;;;;;;;;;;;6.10;99.90;;;;;;5050781;28;20007;-73
2022/12/01 11:34:54;;;;;;;;;;;6.10;99.90;;;;;;5052934;28;19928;-73
2022/12/01 11:37:21;;;;;;;;;;;6.20;99.90;;;;;;5054506;28;20559;-73
2022/12/01 11:39:48;;;;;;;;;;;6.10;99.90;;;;;;5051289;28;20027;-74
2022/12/01 11:42:20;;;;;;;;;;;6.70;99.90;;;;;;5052676;28;20058;-74
2022/12/01 11:45:08;;;;;;;;;;;6.10;99.90;;;;;;5052811;28;20007;-73
2022/12/01 11:47:34;;;;;;;;;;;6.10;99.90;;;;;;5024310;28;19994;-77
2022/12/01 11:50:01;;;;;;;;;;;6.10;99.90;;;;;;5037152;28;20380;-76
2022/12/01 11:52:29;;;;;;;;;;;7.40;99.90;;;;;;5059879;28;19973;-77
2022/12/01 11:54:58;;;;;;;;;;;6.10;99.90;;;;;;5058242;28;19981;-77
2022/12/01 11:57:24;;;;;;;;;;;6.10;99.90;;;;;;5059915;28;19924;-78
2022/12/01 11:59:50;;;;;;;;;;;6.10;99.90;;;;;;5054485;28;19925;-75
2022/12/01 12:02:22;;;;;;;;;;;6.20;99.90;;;;;;4343015;28;10001114;-75
2022/12/01 12:04:50;;;;;;;;;;;6.10;99.90;;;;;;5056726;28;19927;-76
2022/12/01 12:07:25;;;;;;;;;;;6.10;99.90;;;;;;5036465;28;20062;-76
2022/12/01 12:10:00;;;;;;;;;;;6.10;99.90;;;;;;5053879;28;20058;-77
2022/12/01 12:12:49;;;;;;;;;;;6.10;99.90;;;;;;5059592;28;19974;-76
2022/12/01 12:15:41;;;;;;;;;;;6.10;99.90;;;;;;5032632;28;19920;-77
2022/12/01 12:18:28;;;;;;;;;;;6.10;99.90;;;;;;5049439;28;19924;-76
2022/12/01 12:21:04;;;;;;;;;;;6.10;99.90;;;;;;5052193;28;19940;-76
2022/12/01 12:23:47;;;;;;;;;;;6.10;99.90;;;;;;5041896;28;20016;-73
2022/12/01 12:26:13;;;;;;;;;;;6.10;99.90;;;;;;5058877;28;20052;-73
2022/12/01 12:28:51;;;;;;;;;;;6.10;99.90;;;;;;5057708;28;20391;-72
2022/12/01 12:31:20;;;;;;;;;;;6.10;99.90;;;;;;5055540;28;19984;-73
2022/12/01 12:34:11;;;;;;;;;;;6.10;99.90;;;;;;5051583;28;20008;-75
2022/12/01 12:36:40;;;;;;;;;;;6.10;99.90;;;;;;5052694;28;19999;-72
2022/12/01 12:39:25;;;;;;;;;;;6.10;99.90;;;;;;5061172;28;19952;-74
2022/12/01 12:41:52;;;;;;;;;;;6.10;99.90;;;;;;5054817;28;19920;-72
2022/12/01 12:44:30;;;;;;;;;;;6.90;99.90;;;;;;5053437;28;19917;-73
2022/12/01 12:46:58;;;;;;;;;;;6.20;99.90;;;;;;5050217;28;19924;-75
2022/12/01 12:49:24;;;;;;;;;;;6.20;99.90;;;;;;5053645;28;19943;-75
2022/12/01 12:51:53;;;;;;;;;;;6.20;99.90;;;;;;5054128;28;20380;-75
2022/12/01 12:54:33;;;;;;;;;;;6.60;99.90;;;;;;5057954;28;20566;-75
2022/12/01 12:57:02;;;;;;;;;;;6.20;99.90;;;;;;5048292;28;20292;-72
2022/12/01 12:59:35;;;;;;;;;;;6.20;99.90;;;;;;5057607;28;20370;-73
2022/12/01 13:02:16;;;;;;;;;;;6.20;99.90;;;;;;5056811;28;19924;-71
2022/12/01 13:04:47;;;;;;;;;;;6.30;99.90;;;;;;5038454;28;19925;-73
2022/12/01 13:07:22;;;;;;;;;;;6.60;99.90;;;;;;5053233;28;19967;-73
2022/12/01 13:09:51;;;;;;;;;;;6.30;99.90;;;;;;5058426;28;19920;-74
2022/12/01 13:12:26;;;;;;;;;;;6.20;99.90;;;;;;5052268;28;19929;-74
2022/12/01 13:14:55;;;;;;;;;;;6.20;99.90;;;;;;5059194;28;20330;-72
2022/12/01 13:17:25;;;;;;;;;;;6.20;99.90;;;;;;5034706;28;19924;-74
2022/12/01 13:19:50;;;;;;;;;;;6.20;99.90;;;;;;5037147;28;20010;-73
2022/12/01 13:22:23;;;;;;;;;;;6.20;99.90;;;;;;5055387;28;19927;-72
2022/12/01 13:24:49;;;;;;;;;;;6.30;99.90;;;;;;5056849;28;19921;-71
2022/12/01 13:27:20;;;;;;;;;;;6.30;99.90;;;;;;5052303;28;20418;-71
2022/12/01 13:29:47;;;;;;;;;;;6.30;99.90;;;;;;5051172;28;20368;-74
2022/12/01 13:32:27;;;;;;;;;;;6.30;99.90;;;;;;5034901;28;20300;-72
2022/12/01 13:34:52;;;;;;;;;;;5.10;99.90;;;;;;5038480;28;20280;-72
2022/12/01 13:37:29;;;;;;;;;;;6.20;99.90;;;;;;5041946;28;20469;-72
2022/12/01 13:40:04;;;;;;;;;;;6.20;99.90;;;;;;5054167;28;19925;-72
2022/12/01 13:42:33;;;;;;;;;;;6.20;99.90;;;;;;5056984;28;19971;-73
2022/12/01 13:44:59;;;;;;;;;;;6.20;99.90;;;;;;5036404;28;19928;-73
2022/12/01 13:47:30;;;;;;;;;;;6.10;99.90;;;;;;5052993;28;19923;-76
2022/12/01 13:49:57;;;;;;;;;;;6.10;99.90;;;;;;5045513;28;20337;-75
2022/12/01 13:52:27;;;;;;;;;;;6.10;99.90;;;;;;5060131;28;19920;-72
2022/12/01 13:55:18;;;;;;;;;;;6.10;99.90;;;;;;5053652;28;19928;-73
2022/12/01 13:57:48;;;;;;;;;;;6.20;99.90;;;;;;5050025;28;20003;-73
2022/12/01 14:00:33;;;;;;;;;;;6.20;99.90;;;;;;5042007;28;19924;-72
2022/12/01 14:03:25;;;;;;;;;;;6.20;99.90;;;;;;5057693;28;19920;-73
2022/12/01 14:05:50;;;;;;;;;;;6.10;99.90;;;;;;5055685;28;20486;-75
2022/12/01 14:08:24;;;;;;;;;;;6.10;99.90;;;;;;5056746;28;19920;-74
2022/12/01 14:10:57;;;;;;;;;;;6.20;99.90;;;;;;5054297;28;19921;-74
2022/12/01 14:13:23;;;;;;;;;;;6.20;99.90;;;;;;5053205;28;20384;-73
2022/12/01 14:15:56;;;;;;;;;;;6.20;99.90;;;;;;5052980;28;19928;-75
2022/12/01 14:18:21;;;;;;;;;;;6.20;99.90;;;;;;5056112;28;20432;-75
2022/12/01 14:20:47;;;;;;;;;;;6.10;99.90;;;;;;5055676;28;19928;-72
2022/12/01 14:23:13;;;;;;;;;;;6.00;99.90;;;;;;5058250;28;20307;-72
2022/12/01 14:25:39;;;;;;;;;;;6.00;99.90;;;;;;5060052;28;19924;-71
2022/12/01 14:28:12;;;;;;;;;;;6.00;99.90;;;;;;5053565;28;20419;-74
2022/12/01 14:33:25;;;;;;;;;;;6.00;99.90;;;;;;5052428;28;19932;-79
2022/12/01 14:35:59;;;;;;;;;;;6.00;99.90;;;;;;5056735;28;19944;-78
2022/12/01 14:38:26;;;;;;;;;;;6.00;99.90;;;;;;5057515;28;19932;-75
2022/12/01 14:40:52;;;;;;;;;;;6.00;99.90;;;;;;5054813;28;20064;-75
2022/12/01 14:46:07;;;;;;;;;;;6.10;99.90;;;;;;5052755;28;20356;-73